Terminal Aerodrome Forecast
Issued by NWS Charleston, WV

Current Version | Previous Version | Graphics & Text | Print | Product List | Glossary On
Versions: 1 2 3 4 5 6 7 8 9 10 11 12 13 14 15 16 17 18 19 20 21 22 23 24 25
000
FTUS41 KRLX 281120
TAFBKW
TAF
KBKW 281120Z 2812/2912 00000KT P6SM SKC
     FM281500 19006KT P6SM FEW250
     FM281800 21010G16KT P6SM SCT150
     FM282200 21006KT P6SM SCT100
     FM290200 VRB04KT P6SM BKN040
     FM290700 VRB04KT 6SM BR BKN025=

USA.gov is the U.S. government's official web portal to all federal, state and local government web resources and services.